createdAt,value
2022-12-25T00:00:08.472Z,8.66
2022-12-25T00:00:29.706Z,8.65
2022-12-25T00:00:50.842Z,8.66
2022-12-25T00:01:11.943Z,8.66
2022-12-25T00:01:32.989Z,8.65
2022-12-25T00:01:54.045Z,8.65
2022-12-25T00:02:15.184Z,8.66
2022-12-25T00:02:36.327Z,8.66
2022-12-25T00:02:57.527Z,8.66
2022-12-25T00:03:18.814Z,8.66
2022-12-25T00:03:40.123Z,8.65
2022-12-25T00:04:01.406Z,8.66
2022-12-25T00:04:22.502Z,8.65
2022-12-25T00:04:43.542Z,8.66
2022-12-25T00:05:04.606Z,8.66
2022-12-25T00:05:25.721Z,8.66
2022-12-25T00:05:46.767Z,8.66
2022-12-25T00:06:07.828Z,8.67
2022-12-25T00:06:28.919Z,8.67
2022-12-25T00:06:49.967Z,8.67
2022-12-25T00:07:11.031Z,8.66
2022-12-25T00:07:32.099Z,8.66
2022-12-25T00:07:53.154Z,8.67
2022-12-25T00:08:14.264Z,8.67
2022-12-25T00:08:35.278Z,8.68
2022-12-25T00:08:56.331Z,8.67
2022-12-25T00:09:17.389Z,8.67
2022-12-25T00:09:38.443Z,8.68
2022-12-25T00:09:59.502Z,8.69
2022-12-25T00:10:20.576Z,8.69
2022-12-25T00:10:45.310Z,8.69
2022-12-25T00:11:06.746Z,8.70
2022-12-25T00:11:27.808Z,8.69
2022-12-25T00:11:48.856Z,8.70
2022-12-25T00:12:09.915Z,8.70
2022-12-25T00:12:30.986Z,8.70
2022-12-25T00:12:52.071Z,8.71
2022-12-25T00:13:13.119Z,8.71
2022-12-25T00:13:34.191Z,8.71
2022-12-25T00:13:55.223Z,8.71
2022-12-25T00:14:16.289Z,8.71
2022-12-25T00:14:37.341Z,8.72
2022-12-25T00:14:58.427Z,8.72
2022-12-25T00:15:19.457Z,8.72
2022-12-25T00:15:40.547Z,8.72
2022-12-25T00:16:01.628Z,8.72
2022-12-25T00:16:22.864Z,8.71
2022-12-25T00:16:43.989Z,8.72
2022-12-25T00:17:05.081Z,8.72
2022-12-25T00:17:26.123Z,8.73
2022-12-25T00:17:47.179Z,8.73
2022-12-25T00:18:08.252Z,8.74
2022-12-25T00:18:29.296Z,8.74
2022-12-25T00:18:50.351Z,8.74
2022-12-25T00:19:11.410Z,8.74
2022-12-25T00:19:32.525Z,8.74
2022-12-25T00:19:53.561Z,8.75
2022-12-25T00:20:14.627Z,8.75
2022-12-25T00:20:35.681Z,8.74
2022-12-25T00:20:56.739Z,8.75
2022-12-25T00:21:17.800Z,8.75
2022-12-25T00:21:38.901Z,8.75
2022-12-25T00:21:59.961Z,8.75
2022-12-25T00:22:20.992Z,8.75
2022-12-25T00:22:42.051Z,8.76
2022-12-25T00:23:03.111Z,8.75
2022-12-25T00:23:24.176Z,8.75
2022-12-25T00:23:45.267Z,8.75
2022-12-25T00:24:06.316Z,8.75
2022-12-25T00:24:27.362Z,8.75
2022-12-25T00:24:48.446Z,8.75
2022-12-25T00:25:09.503Z,8.76
2022-12-25T00:25:30.540Z,8.75
2022-12-25T00:25:51.609Z,8.76
2022-12-25T00:26:12.667Z,8.76
2022-12-25T00:26:33.721Z,8.75
2022-12-25T00:26:54.806Z,8.76
2022-12-25T00:27:15.872Z,8.76
2022-12-25T00:27:36.935Z,8.76
2022-12-25T00:27:57.998Z,8.77
2022-12-25T00:28:19.094Z,8.76
2022-12-25T00:28:40.159Z,8.76
2022-12-25T00:29:01.217Z,8.77
2022-12-25T00:29:22.272Z,8.76
2022-12-25T00:29:43.325Z,8.76
2022-12-25T00:30:04.382Z,8.77
2022-12-25T00:30:25.470Z,8.77
2022-12-25T00:30:46.508Z,8.76
2022-12-25T00:31:07.696Z,8.76
2022-12-25T00:31:29.006Z,8.77
2022-12-25T00:31:50.173Z,8.77
2022-12-25T00:32:11.416Z,8.77
2022-12-25T00:32:32.524Z,8.77
2022-12-25T00:32:53.540Z,8.77
2022-12-25T00:33:14.613Z,8.77
2022-12-25T00:33:35.658Z,8.77
2022-12-25T00:33:56.718Z,8.77
2022-12-25T00:34:17.778Z,8.77
2022-12-25T00:34:38.895Z,8.77
2022-12-25T00:34:59.944Z,8.77
2022-12-25T00:35:20.984Z,8.77
2022-12-25T00:35:42.047Z,8.77
2022-12-25T00:36:03.113Z,8.77
2022-12-25T00:36:24.156Z,8.77
2022-12-25T00:36:45.249Z,8.78
2022-12-25T00:37:06.282Z,8.78
2022-12-25T00:37:27.497Z,8.78
2022-12-25T00:37:48.563Z,8.78
2022-12-25T00:38:09.623Z,8.78
2022-12-25T00:38:30.677Z,8.78
2022-12-25T00:38:51.747Z,8.78
2022-12-25T00:39:12.802Z,8.78
2022-12-25T00:39:33.858Z,8.79
2022-12-25T00:39:54.930Z,8.78
2022-12-25T00:40:15.989Z,8.79
2022-12-25T00:40:37.055Z,8.79
2022-12-25T00:40:58.118Z,8.78
2022-12-25T00:41:19.196Z,8.79
2022-12-25T00:41:40.247Z,8.80
2022-12-25T00:42:01.323Z,8.79
2022-12-25T00:42:22.355Z,8.79
2022-12-25T00:42:43.562Z,8.80
2022-12-25T00:43:04.617Z,8.80
2022-12-25T00:43:25.680Z,8.80
2022-12-25T00:43:46.804Z,8.81
2022-12-25T00:44:07.856Z,8.80
2022-12-25T00:44:28.896Z,8.80
2022-12-25T00:44:49.972Z,8.81
2022-12-25T00:45:11.032Z,8.80
2022-12-25T00:45:32.155Z,8.81
2022-12-25T00:45:53.283Z,8.81
2022-12-25T00:46:14.520Z,8.81
2022-12-25T00:46:35.725Z,8.82
2022-12-25T00:46:56.794Z,8.82
2022-12-25T00:47:17.928Z,8.82
2022-12-25T00:47:38.992Z,8.82
2022-12-25T00:48:00.128Z,8.83
2022-12-25T00:48:21.176Z,8.83
2022-12-25T00:48:42.206Z,8.84
2022-12-25T00:49:03.270Z,8.83
2022-12-25T00:49:24.316Z,8.84
2022-12-25T00:49:45.389Z,8.84
2022-12-25T00:50:06.441Z,8.85
2022-12-25T00:50:27.508Z,8.84
2022-12-25T00:50:48.549Z,8.86
2022-12-25T00:51:09.651Z,8.86
2022-12-25T00:51:30.689Z,8.86
2022-12-25T00:51:51.764Z,8.86
2022-12-25T00:52:12.819Z,8.87
2022-12-25T00:52:33.889Z,8.87
2022-12-25T00:52:55.077Z,8.88
2022-12-25T00:53:16.136Z,8.87
2022-12-25T00:53:37.238Z,8.87
2022-12-25T00:53:58.281Z,8.87
2022-12-25T00:54:19.338Z,8.87
2022-12-25T00:54:40.410Z,8.88
2022-12-25T00:55:01.484Z,8.88
2022-12-25T00:55:22.548Z,8.88
2022-12-25T00:55:43.601Z,8.89
2022-12-25T00:56:04.663Z,8.89
2022-12-25T00:56:25.741Z,8.89
2022-12-25T00:56:46.784Z,8.88
2022-12-25T00:57:07.837Z,8.89
2022-12-25T00:57:28.902Z,8.88
2022-12-25T00:57:49.963Z,8.89
2022-12-25T00:58:11.202Z,8.88
2022-12-25T00:58:32.297Z,8.89
2022-12-25T00:58:53.343Z,8.89
2022-12-25T00:59:14.392Z,8.89
2022-12-25T00:59:35.460Z,8.89
2022-12-25T00:59:56.508Z,8.89
2022-12-25T01:00:17.596Z,8.88
2022-12-25T01:00:38.701Z,8.88
2022-12-25T01:00:59.763Z,8.88
2022-12-25T01:01:20.968Z,8.89
2022-12-25T01:01:42.417Z,8.88
2022-12-25T01:02:03.676Z,8.88
2022-12-25T01:02:25.196Z,8.88
2022-12-25T01:02:46.606Z,8.88
2022-12-25T01:03:07.783Z,8.88
2022-12-25T01:03:29.165Z,8.88
2022-12-25T01:03:50.198Z,8.88
2022-12-25T01:04:11.268Z,8.88
2022-12-25T01:04:32.342Z,8.88
2022-12-25T01:04:53.396Z,8.88
2022-12-25T01:05:14.435Z,8.88
2022-12-25T01:05:35.556Z,8.88
2022-12-25T01:05:56.567Z,8.87
2022-12-25T01:06:17.629Z,8.88
2022-12-25T01:06:38.687Z,8.87
2022-12-25T01:06:59.753Z,8.87
2022-12-25T01:07:20.802Z,8.87
2022-12-25T01:07:41.897Z,8.87
2022-12-25T01:08:02.912Z,8.87
2022-12-25T01:08:23.974Z,8.87
2022-12-25T01:08:45.199Z,8.86
2022-12-25T01:09:06.255Z,8.86
2022-12-25T01:09:27.312Z,8.86
2022-12-25T01:09:48.401Z,8.86
2022-12-25T01:10:09.522Z,8.86
2022-12-25T01:10:30.541Z,8.86
2022-12-25T01:10:51.606Z,8.84
2022-12-25T01:11:12.655Z,8.85
2022-12-25T01:11:33.717Z,8.85
2022-12-25T01:11:54.775Z,8.85
2022-12-25T01:12:15.870Z,8.84
2022-12-25T01:12:36.913Z,8.84
2022-12-25T01:12:57.971Z,8.84
2022-12-25T01:13:19.047Z,8.84
2022-12-25T01:13:40.148Z,8.83
2022-12-25T01:14:01.248Z,8.84
2022-12-25T01:14:22.284Z,8.83
2022-12-25T01:14:43.366Z,8.82
2022-12-25T01:15:04.464Z,8.82
2022-12-25T01:15:25.509Z,8.83
2022-12-25T01:15:46.574Z,8.82
2022-12-25T01:16:07.710Z,8.82
2022-12-25T01:16:28.831Z,8.81
2022-12-25T01:16:50.005Z,8.81
2022-12-25T01:17:11.082Z,8.81
2022-12-25T01:17:32.137Z,8.81
2022-12-25T01:17:53.216Z,8.81
2022-12-25T01:18:14.277Z,8.80
2022-12-25T01:18:35.342Z,8.81
2022-12-25T01:18:56.463Z,8.81
2022-12-25T01:19:17.533Z,8.80
2022-12-25T01:19:38.583Z,8.80
2022-12-25T01:20:00.173Z,8.80
2022-12-25T01:20:21.208Z,8.80
2022-12-25T01:20:42.262Z,8.80
2022-12-25T01:21:03.379Z,8.79
2022-12-25T01:21:24.406Z,8.78
2022-12-25T01:21:45.481Z,8.79
2022-12-25T01:22:06.562Z,8.79
2022-12-25T01:22:27.623Z,8.78
2022-12-25T01:22:48.679Z,8.78
2022-12-25T01:23:09.744Z,8.78
2022-12-25T01:23:30.789Z,8.77
2022-12-25T01:23:51.859Z,8.77
2022-12-25T01:24:12.918Z,8.77
2022-12-25T01:24:33.992Z,8.77
2022-12-25T01:24:55.053Z,8.77
2022-12-25T01:25:16.123Z,8.76
2022-12-25T01:25:37.181Z,8.76
2022-12-25T01:25:58.256Z,8.76
2022-12-25T01:26:19.316Z,8.76
2022-12-25T01:26:40.369Z,8.76
2022-12-25T01:27:01.436Z,8.75
2022-12-25T01:27:22.502Z,8.75
2022-12-25T01:27:43.575Z,8.75
2022-12-25T01:28:04.618Z,8.75
2022-12-25T01:28:25.708Z,8.75
2022-12-25T01:28:46.737Z,8.74
2022-12-25T01:29:07.815Z,8.74
2022-12-25T01:29:28.888Z,8.74
2022-12-25T01:29:50.104Z,8.74
2022-12-25T01:30:11.161Z,8.74
2022-12-25T01:30:32.231Z,8.74
2022-12-25T01:30:53.281Z,8.73
2022-12-25T01:31:14.426Z,8.73
2022-12-25T01:31:35.526Z,8.73
2022-12-25T01:31:56.596Z,8.73
2022-12-25T01:32:17.647Z,8.73
2022-12-25T01:32:38.711Z,8.73
2022-12-25T01:32:59.782Z,8.73
2022-12-25T01:33:20.840Z,8.72
2022-12-25T01:33:41.907Z,8.72
2022-12-25T01:34:02.970Z,8.72
2022-12-25T01:34:24.030Z,8.72
2022-12-25T01:34:49.262Z,8.72
2022-12-25T01:35:12.228Z,8.72
2022-12-25T01:35:33.285Z,8.71
2022-12-25T01:35:54.350Z,8.70
2022-12-25T01:36:15.400Z,8.70
2022-12-25T01:36:36.468Z,8.71
2022-12-25T01:36:57.516Z,8.71
2022-12-25T01:37:18.589Z,8.71
2022-12-25T01:37:39.645Z,8.70
2022-12-25T01:38:00.696Z,8.71
2022-12-25T01:38:21.766Z,8.71
2022-12-25T01:38:42.825Z,8.70
2022-12-25T01:39:03.883Z,8.71
2022-12-25T01:39:24.945Z,8.71
2022-12-25T01:39:46.047Z,8.70
2022-12-25T01:40:07.217Z,8.70
2022-12-25T01:40:28.275Z,8.70
2022-12-25T01:40:49.343Z,8.70
2022-12-25T01:41:10.405Z,8.70
2022-12-25T01:41:31.460Z,8.69
2022-12-25T01:41:52.521Z,8.70
2022-12-25T01:42:13.618Z,8.69
2022-12-25T01:42:34.654Z,8.70
2022-12-25T01:42:55.728Z,8.69
2022-12-25T01:43:18.729Z,8.69
2022-12-25T01:43:39.853Z,8.69
2022-12-25T01:44:00.922Z,8.69
2022-12-25T01:44:22.004Z,8.68
2022-12-25T01:44:43.048Z,8.68
2022-12-25T01:45:04.100Z,8.68
2022-12-25T01:45:25.369Z,8.69
2022-12-25T01:45:46.454Z,8.68
2022-12-25T01:46:07.627Z,8.67
2022-12-25T01:46:28.732Z,8.67
2022-12-25T01:46:49.770Z,8.67
2022-12-25T01:47:10.815Z,8.68
2022-12-25T01:47:31.887Z,8.67
2022-12-25T01:47:52.937Z,8.67
2022-12-25T01:48:13.999Z,8.66
2022-12-25T01:48:35.088Z,8.67
2022-12-25T01:48:56.131Z,8.66
2022-12-25T01:49:17.223Z,8.66
2022-12-25T01:49:38.251Z,8.65
2022-12-25T01:49:59.311Z,8.66
2022-12-25T01:50:20.363Z,8.66
2022-12-25T01:50:41.448Z,8.65
2022-12-25T01:51:02.515Z,8.65
2022-12-25T01:51:23.592Z,8.65
2022-12-25T01:51:44.655Z,8.64
2022-12-25T01:52:05.696Z,8.65
2022-12-25T01:52:26.751Z,8.65
2022-12-25T01:52:47.810Z,8.64
2022-12-25T01:53:08.870Z,8.64
2022-12-25T01:53:30.044Z,8.64
2022-12-25T01:53:51.076Z,8.65
2022-12-25T01:54:12.119Z,8.64
2022-12-25T01:54:33.202Z,8.64
2022-12-25T01:54:54.252Z,8.64
2022-12-25T01:55:15.329Z,8.64
2022-12-25T01:55:36.400Z,8.64
2022-12-25T01:55:57.483Z,8.64
2022-12-25T01:56:18.569Z,8.64
2022-12-25T01:56:39.623Z,8.64
2022-12-25T01:57:00.673Z,8.63
2022-12-25T01:57:21.711Z,8.64
2022-12-25T01:57:42.773Z,8.63
2022-12-25T01:58:03.836Z,8.64
2022-12-25T01:58:24.905Z,8.63
2022-12-25T01:58:45.971Z,8.63
2022-12-25T01:59:07.049Z,8.63
2022-12-25T01:59:28.122Z,8.62
2022-12-25T01:59:49.153Z,8.63
2022-12-25T02:00:10.219Z,8.62
2022-12-25T02:00:31.275Z,8.62
2022-12-25T02:00:52.392Z,8.62
2022-12-25T02:01:13.795Z,8.62
2022-12-25T02:01:35.004Z,8.62
2022-12-25T02:01:56.173Z,8.62
2022-12-25T02:02:17.410Z,8.62
2022-12-25T02:02:38.665Z,8.62
2022-12-25T02:02:59.865Z,8.61
2022-12-25T02:03:20.956Z,8.62
2022-12-25T02:03:42.024Z,8.62
2022-12-25T02:04:03.082Z,8.62
2022-12-25T02:04:24.151Z,8.62
2022-12-25T02:04:45.217Z,8.62
2022-12-25T02:05:06.273Z,8.62
2022-12-25T02:05:27.344Z,8.62
2022-12-25T02:05:48.468Z,8.62
2022-12-25T02:06:09.524Z,8.62
2022-12-25T02:06:30.578Z,8.63
2022-12-25T02:06:51.642Z,8.62
2022-12-25T02:07:12.701Z,8.63
2022-12-25T02:07:33.764Z,8.63
2022-12-25T02:07:54.842Z,8.62
2022-12-25T02:08:15.886Z,8.63
2022-12-25T02:08:36.944Z,8.62
2022-12-25T02:08:58.001Z,8.63
2022-12-25T02:09:19.065Z,8.63
2022-12-25T02:09:40.126Z,8.64
2022-12-25T02:10:01.176Z,8.63
2022-12-25T02:10:22.236Z,8.63
2022-12-25T02:10:43.348Z,8.63
2022-12-25T02:11:04.402Z,8.63
2022-12-25T02:11:25.475Z,8.64
2022-12-25T02:11:46.548Z,8.64
2022-12-25T02:12:07.608Z,8.64
2022-12-25T02:12:28.663Z,8.64
2022-12-25T02:12:49.749Z,8.63
2022-12-25T02:13:10.829Z,8.64
2022-12-25T02:13:31.869Z,8.64
2022-12-25T02:13:52.933Z,8.64
2022-12-25T02:14:13.994Z,8.64
2022-12-25T02:14:35.097Z,8.64
2022-12-25T02:15:01.106Z,8.64
2022-12-25T02:15:23.108Z,8.64
2022-12-25T02:15:44.161Z,8.64
2022-12-25T02:16:05.266Z,8.64
2022-12-25T02:16:26.347Z,8.64
2022-12-25T02:16:57.941Z,8.65
2022-12-25T02:17:14.485Z,8.66
2022-12-25T02:17:35.551Z,8.65
2022-12-25T02:17:56.620Z,8.65
2022-12-25T02:18:17.695Z,8.65
2022-12-25T02:18:38.736Z,8.65
2022-12-25T02:18:59.789Z,8.65
2022-12-25T02:19:20.850Z,8.66
2022-12-25T02:19:41.913Z,8.67
2022-12-25T02:20:03.004Z,8.67
2022-12-25T02:20:24.033Z,8.67
2022-12-25T02:20:45.094Z,8.67
2022-12-25T02:21:06.159Z,8.69
2022-12-25T02:21:27.220Z,8.68
2022-12-25T02:21:48.308Z,8.68
2022-12-25T02:22:09.362Z,8.69
2022-12-25T02:22:30.434Z,8.69
2022-12-25T02:22:51.585Z,8.70
2022-12-25T02:23:12.624Z,8.70
2022-12-25T02:23:33.695Z,8.70
2022-12-25T02:23:54.756Z,8.70
2022-12-25T02:24:15.821Z,8.71
2022-12-25T02:24:36.877Z,8.71
2022-12-25T02:24:58.051Z,8.71
2022-12-25T02:25:19.059Z,8.71
2022-12-25T02:25:40.134Z,8.71
2022-12-25T02:26:01.203Z,8.72
2022-12-25T02:26:22.297Z,8.72
2022-12-25T02:26:43.323Z,8.72
2022-12-25T02:27:04.654Z,8.72
2022-12-25T02:27:25.679Z,8.72
2022-12-25T02:27:46.742Z,8.72
2022-12-25T02:28:07.794Z,8.72
2022-12-25T02:28:28.860Z,8.73
2022-12-25T02:28:49.929Z,8.72
2022-12-25T02:29:10.994Z,8.72
2022-12-25T02:29:32.129Z,8.72
2022-12-25T02:29:53.176Z,8.73
2022-12-25T02:30:14.214Z,8.73
2022-12-25T02:30:35.268Z,8.72
2022-12-25T02:30:56.319Z,8.73
2022-12-25T02:31:17.473Z,8.73
2022-12-25T02:31:38.636Z,8.73
2022-12-25T02:31:59.779Z,8.73
2022-12-25T02:32:20.872Z,8.73
2022-12-25T02:32:41.898Z,8.73
2022-12-25T02:33:02.953Z,8.74
2022-12-25T02:33:24.012Z,8.73
2022-12-25T02:33:45.147Z,8.74
2022-12-25T02:34:06.169Z,8.74
2022-12-25T02:34:27.231Z,8.73
2022-12-25T02:34:48.289Z,8.74
2022-12-25T02:35:09.364Z,8.74
2022-12-25T02:35:30.401Z,8.75
2022-12-25T02:35:51.507Z,8.74
2022-12-25T02:36:12.531Z,8.74
2022-12-25T02:36:33.579Z,8.74
2022-12-25T02:36:54.663Z,8.74
2022-12-25T02:37:15.704Z,8.74
2022-12-25T02:37:36.912Z,8.75
2022-12-25T02:37:57.988Z,8.74
2022-12-25T02:38:19.041Z,8.75
2022-12-25T02:38:40.136Z,8.74
2022-12-25T02:39:01.190Z,8.75
2022-12-25T02:39:22.311Z,8.74
2022-12-25T02:39:43.343Z,8.74
2022-12-25T02:40:04.429Z,8.74
2022-12-25T02:40:25.482Z,8.75
2022-12-25T02:40:46.529Z,8.74
2022-12-25T02:41:07.601Z,8.74
2022-12-25T02:41:28.646Z,8.74
2022-12-25T02:41:49.705Z,8.75
2022-12-25T02:42:10.807Z,8.75
2022-12-25T02:42:31.844Z,8.74
2022-12-25T02:42:53.064Z,8.74
2022-12-25T02:43:14.112Z,8.74
2022-12-25T02:43:35.172Z,8.74
2022-12-25T02:43:56.231Z,8.74
2022-12-25T02:44:17.320Z,8.74
2022-12-25T02:44:38.361Z,8.75
2022-12-25T02:44:59.439Z,8.75
2022-12-25T02:45:20.477Z,8.75
2022-12-25T02:45:41.574Z,8.75
2022-12-25T02:46:02.825Z,8.74
2022-12-25T02:46:23.958Z,8.74
2022-12-25T02:46:45.009Z,8.75
2022-12-25T02:47:06.051Z,8.75
2022-12-25T02:47:27.107Z,8.76
2022-12-25T02:47:48.198Z,8.75
2022-12-25T02:48:09.403Z,8.75
2022-12-25T02:48:30.461Z,8.75
2022-12-25T02:48:51.530Z,8.75
2022-12-25T02:49:12.591Z,8.76
2022-12-25T02:49:33.645Z,8.76
2022-12-25T02:49:54.697Z,8.76
2022-12-25T02:50:15.773Z,8.76
2022-12-25T02:50:36.816Z,8.77
2022-12-25T02:50:57.879Z,8.76
2022-12-25T02:51:18.951Z,8.77
2022-12-25T02:51:40.002Z,8.77
2022-12-25T02:52:01.064Z,8.76
2022-12-25T02:52:22.122Z,8.77
2022-12-25T02:52:43.187Z,8.77
2022-12-25T02:53:04.244Z,8.77
2022-12-25T02:53:25.461Z,8.78
2022-12-25T02:53:46.506Z,8.78
2022-12-25T02:54:07.563Z,8.77
2022-12-25T02:54:28.619Z,8.78
2022-12-25T02:54:49.682Z,8.77
2022-12-25T02:55:10.764Z,8.78
2022-12-25T02:55:31.814Z,8.78
2022-12-25T02:55:52.865Z,8.78
2022-12-25T02:56:13.965Z,8.78
2022-12-25T02:56:34.980Z,8.78
2022-12-25T02:56:56.062Z,8.79
2022-12-25T02:57:17.108Z,8.79
2022-12-25T02:57:38.171Z,8.79
2022-12-25T02:57:59.236Z,8.79
2022-12-25T02:58:20.306Z,8.78
2022-12-25T02:58:41.387Z,8.79
2022-12-25T02:59:02.440Z,8.79
2022-12-25T02:59:23.495Z,8.80
2022-12-25T02:59:44.553Z,8.80
2022-12-25T03:00:05.626Z,8.80
2022-12-25T03:00:26.676Z,8.80
2022-12-25T03:00:47.774Z,8.80
2022-12-25T03:01:08.864Z,8.81
2022-12-25T03:01:30.060Z,8.81
2022-12-25T03:01:51.242Z,8.80
2022-12-25T03:02:12.549Z,8.81
2022-12-25T03:02:33.709Z,8.82
2022-12-25T03:02:54.909Z,8.82
2022-12-25T03:03:15.995Z,8.82
2022-12-25T03:03:37.138Z,8.82
2022-12-25T03:03:58.316Z,8.82
2022-12-25T03:04:19.379Z,8.83
2022-12-25T03:04:40.450Z,8.83
2022-12-25T03:05:01.550Z,8.83
2022-12-25T03:05:22.569Z,8.84
2022-12-25T03:05:43.646Z,8.84
2022-12-25T03:06:04.734Z,8.85
2022-12-25T03:06:25.793Z,8.84
2022-12-25T03:06:46.894Z,8.84
2022-12-25T03:07:07.916Z,8.84
2022-12-25T03:07:29.008Z,8.85
2022-12-25T03:07:50.097Z,8.84
2022-12-25T03:08:11.158Z,8.86
2022-12-25T03:08:32.220Z,8.86
2022-12-25T03:08:53.325Z,8.85
2022-12-25T03:09:14.359Z,8.85
2022-12-25T03:09:35.421Z,8.86
2022-12-25T03:09:56.505Z,8.86
2022-12-25T03:10:17.575Z,8.87
2022-12-25T03:10:38.612Z,8.87
2022-12-25T03:10:59.682Z,8.86
2022-12-25T03:11:20.742Z,8.86
2022-12-25T03:11:41.786Z,8.87
2022-12-25T03:12:02.872Z,8.87
2022-12-25T03:12:23.935Z,8.88
2022-12-25T03:12:44.970Z,8.88
2022-12-25T03:13:06.028Z,8.88
2022-12-25T03:13:27.094Z,8.88
2022-12-25T03:13:48.173Z,8.88
2022-12-25T03:14:09.393Z,8.88
2022-12-25T03:14:30.455Z,8.89
2022-12-25T03:14:51.550Z,8.89
2022-12-25T03:15:12.671Z,8.89
2022-12-25T03:15:33.708Z,8.89
2022-12-25T03:15:54.775Z,8.89
2022-12-25T03:16:15.867Z,8.89
2022-12-25T03:16:37.029Z,8.90
2022-12-25T03:16:58.135Z,8.90
2022-12-25T03:17:19.192Z,8.91
2022-12-25T03:17:40.279Z,8.91
2022-12-25T03:18:01.355Z,8.92
2022-12-25T03:18:22.417Z,8.92
2022-12-25T03:18:43.475Z,8.93
2022-12-25T03:19:04.523Z,8.93
2022-12-25T03:19:25.758Z,8.94
2022-12-25T03:19:46.809Z,8.95
2022-12-25T03:20:07.868Z,8.95
2022-12-25T03:20:28.944Z,8.95
2022-12-25T03:20:49.991Z,8.96
2022-12-25T03:21:11.323Z,8.97
2022-12-25T03:21:32.359Z,8.97
2022-12-25T03:21:53.411Z,8.98
2022-12-25T03:22:14.539Z,8.99
2022-12-25T03:22:35.582Z,8.99
2022-12-25T03:22:56.624Z,9.00
2022-12-25T03:23:17.664Z,9.00
2022-12-25T03:23:38.792Z,9.01
2022-12-25T03:23:59.835Z,9.02
2022-12-25T03:24:20.928Z,9.02
2022-12-25T03:24:41.979Z,9.03
2022-12-25T03:25:03.034Z,9.04
2022-12-25T03:25:24.091Z,9.04
2022-12-25T03:25:45.163Z,9.05
2022-12-25T03:26:06.244Z,9.05
2022-12-25T03:26:27.284Z,9.06
2022-12-25T03:26:48.347Z,9.07
2022-12-25T03:27:09.392Z,9.08
2022-12-25T03:27:30.446Z,9.08
2022-12-25T03:27:51.522Z,9.08
2022-12-25T03:28:12.561Z,9.08
2022-12-25T03:28:33.668Z,9.09
2022-12-25T03:28:54.696Z,9.10
2022-12-25T03:29:15.761Z,9.10
2022-12-25T03:29:36.816Z,9.10
2022-12-25T03:29:57.946Z,9.11
2022-12-25T03:30:19.042Z,9.11
2022-12-25T03:30:40.147Z,9.12
2022-12-25T03:31:01.267Z,9.12
2022-12-25T03:31:22.394Z,9.13
2022-12-25T03:31:43.413Z,9.13
2022-12-25T03:32:04.564Z,9.14
2022-12-25T03:32:25.615Z,9.14
2022-12-25T03:32:46.682Z,9.15
2022-12-25T03:33:36.714Z,9.16
2022-12-25T03:33:44.878Z,9.17
2022-12-25T03:34:01.747Z,9.17
2022-12-25T03:34:22.813Z,9.16
2022-12-25T03:34:43.861Z,9.17
2022-12-25T03:35:06.388Z,9.18
2022-12-25T03:35:27.523Z,9.18
2022-12-25T03:35:48.560Z,9.19
2022-12-25T03:36:09.601Z,9.19
2022-12-25T03:36:30.662Z,9.20
2022-12-25T03:36:51.716Z,9.20
2022-12-25T03:37:12.767Z,9.21
2022-12-25T03:37:33.885Z,9.21
2022-12-25T03:37:54.921Z,9.22
2022-12-25T03:38:15.985Z,9.22
2022-12-25T03:38:37.034Z,9.22
2022-12-25T03:38:58.095Z,9.23
2022-12-25T03:39:19.144Z,9.23
2022-12-25T03:39:40.249Z,9.24
2022-12-25T03:40:01.285Z,9.25
2022-12-25T03:40:22.508Z,9.26
2022-12-25T03:40:43.559Z,9.25
2022-12-25T03:41:04.612Z,9.26
2022-12-25T03:41:25.683Z,9.26
2022-12-25T03:41:46.730Z,9.27
2022-12-25T03:42:07.796Z,9.28
2022-12-25T03:42:28.848Z,9.28
2022-12-25T03:42:49.903Z,9.28
2022-12-25T03:43:10.959Z,9.28
2022-12-25T03:43:32.021Z,9.29
2022-12-25T03:43:53.088Z,9.29
2022-12-25T03:44:14.154Z,9.29
2022-12-25T03:44:35.216Z,9.30
2022-12-25T03:44:56.258Z,9.30
2022-12-25T03:45:17.317Z,9.30
2022-12-25T03:45:38.448Z,9.31
2022-12-25T03:45:59.508Z,9.31
2022-12-25T03:46:20.637Z,9.31
2022-12-25T03:46:41.813Z,9.31
2022-12-25T03:47:02.856Z,9.32
2022-12-25T03:47:23.906Z,9.32
2022-12-25T03:47:44.964Z,9.32
2022-12-25T03:48:06.037Z,9.32
2022-12-25T03:48:27.085Z,9.33
2022-12-25T03:48:48.160Z,9.33
2022-12-25T03:49:09.220Z,9.34
2022-12-25T03:49:30.267Z,9.34
2022-12-25T03:49:51.329Z,9.34
2022-12-25T03:50:12.390Z,9.34
2022-12-25T03:50:33.448Z,9.35
2022-12-25T03:50:54.542Z,9.35
2022-12-25T03:51:15.662Z,9.35
2022-12-25T03:51:36.708Z,9.35
2022-12-25T03:51:57.765Z,9.35
2022-12-25T03:52:18.836Z,9.35
2022-12-25T03:52:39.887Z,9.36
2022-12-25T03:53:00.941Z,9.36
2022-12-25T03:53:22.026Z,9.36
2022-12-25T03:53:43.071Z,9.36
2022-12-25T03:54:04.124Z,9.36
2022-12-25T03:54:25.187Z,9.36
2022-12-25T03:54:46.229Z,9.37
2022-12-25T03:55:07.336Z,9.37
2022-12-25T03:55:28.365Z,9.37
2022-12-25T03:55:49.428Z,9.37
2022-12-25T03:56:10.533Z,9.37
2022-12-25T03:56:31.593Z,9.38
2022-12-25T03:56:52.648Z,9.38
2022-12-25T03:57:13.712Z,9.38
2022-12-25T03:57:34.762Z,9.39
2022-12-25T03:57:55.860Z,9.39
2022-12-25T03:58:16.913Z,9.39
2022-12-25T03:58:37.974Z,9.39
2022-12-25T03:58:59.031Z,9.39
2022-12-25T03:59:23.780Z,9.39
2022-12-25T03:59:45.282Z,9.39
2022-12-25T04:00:06.359Z,9.40
2022-12-25T04:00:27.443Z,9.38
2022-12-25T04:00:48.491Z,9.40
2022-12-25T04:01:09.601Z,9.40
2022-12-25T04:01:30.832Z,9.39
2022-12-25T04:01:52.098Z,9.40
2022-12-25T04:02:13.382Z,9.39
2022-12-25T04:02:34.680Z,9.40
2022-12-25T04:02:55.988Z,9.40
2022-12-25T04:03:17.180Z,9.40
2022-12-25T04:03:38.314Z,9.41
2022-12-25T04:03:59.399Z,9.40
2022-12-25T04:04:20.466Z,9.41
2022-12-25T04:04:41.523Z,9.40
2022-12-25T04:05:02.574Z,9.40
2022-12-25T04:05:23.623Z,9.40
2022-12-25T04:05:44.688Z,9.39
2022-12-25T04:06:05.734Z,9.40
2022-12-25T04:06:26.801Z,9.40
2022-12-25T04:06:47.879Z,9.39
2022-12-25T04:07:08.957Z,9.39
2022-12-25T04:07:30.023Z,9.39
2022-12-25T04:07:51.061Z,9.38
2022-12-25T04:08:12.117Z,9.39
2022-12-25T04:08:33.180Z,9.39
2022-12-25T04:08:54.233Z,9.38
2022-12-25T04:09:15.292Z,9.38
2022-12-25T04:09:36.367Z,9.38
2022-12-25T04:09:57.442Z,9.37
2022-12-25T04:10:18.498Z,9.37
2022-12-25T04:10:39.551Z,9.37
2022-12-25T04:11:00.608Z,9.37
2022-12-25T04:11:21.662Z,9.36
2022-12-25T04:11:42.740Z,9.37
2022-12-25T04:12:03.934Z,9.36
2022-12-25T04:12:24.991Z,9.36
2022-12-25T04:12:46.048Z,9.36
2022-12-25T04:13:07.113Z,9.35
2022-12-25T04:13:28.160Z,9.35
2022-12-25T04:13:49.214Z,9.34
2022-12-25T04:14:10.285Z,9.35
2022-12-25T04:14:31.332Z,9.34
2022-12-25T04:14:52.393Z,9.34
2022-12-25T04:15:13.447Z,9.33
2022-12-25T04:15:34.548Z,9.33
2022-12-25T04:15:55.636Z,9.33
2022-12-25T04:16:16.747Z,9.32
2022-12-25T04:16:37.797Z,9.32
2022-12-25T04:16:58.887Z,9.32
2022-12-25T04:17:19.955Z,9.31
2022-12-25T04:17:41.016Z,9.31
2022-12-25T04:18:02.076Z,9.31
2022-12-25T04:18:23.172Z,9.30
2022-12-25T04:18:44.242Z,9.30
2022-12-25T04:19:05.314Z,9.29
2022-12-25T04:19:26.368Z,9.30
2022-12-25T04:19:47.431Z,9.30
2022-12-25T04:20:08.494Z,9.29
2022-12-25T04:20:29.550Z,9.30
2022-12-25T04:20:50.611Z,9.28
2022-12-25T04:21:11.687Z,9.28
2022-12-25T04:21:32.744Z,9.28
2022-12-25T04:21:53.793Z,9.27
2022-12-25T04:22:14.995Z,9.28
2022-12-25T04:22:36.214Z,9.27
2022-12-25T04:22:57.262Z,9.27
2022-12-25T04:23:18.321Z,9.26
2022-12-25T04:23:39.395Z,9.26
2022-12-25T04:24:00.446Z,9.26
2022-12-25T04:24:21.494Z,9.26
2022-12-25T04:24:42.574Z,9.26
2022-12-25T04:25:03.643Z,9.26
2022-12-25T04:25:24.700Z,9.26
2022-12-25T04:25:45.751Z,9.26
2022-12-25T04:26:06.844Z,9.25
2022-12-25T04:26:27.903Z,9.25
2022-12-25T04:26:48.959Z,9.25
2022-12-25T04:27:10.018Z,9.25
2022-12-25T04:27:31.096Z,9.25
2022-12-25T04:27:52.185Z,9.25
2022-12-25T04:28:13.219Z,9.25
2022-12-25T04:28:34.304Z,9.25
2022-12-25T04:28:55.345Z,9.25
2022-12-25T04:29:16.403Z,9.25
2022-12-25T04:29:37.458Z,9.25
2022-12-25T04:29:58.534Z,9.25
2022-12-25T04:30:19.601Z,9.25
2022-12-25T04:30:40.650Z,9.25
2022-12-25T04:31:01.810Z,9.25
2022-12-25T04:31:22.868Z,9.25
2022-12-25T04:31:43.980Z,9.25
2022-12-25T04:32:05.024Z,9.25
2022-12-25T04:32:26.090Z,9.26
2022-12-25T04:32:47.173Z,9.25
2022-12-25T04:33:08.239Z,9.25
2022-12-25T04:33:29.277Z,9.25
2022-12-25T04:33:50.337Z,9.25
2022-12-25T04:34:11.381Z,9.25
2022-12-25T04:34:32.469Z,9.25
2022-12-25T04:34:53.576Z,9.25
2022-12-25T04:35:14.634Z,9.26
2022-12-25T04:35:35.685Z,9.26
2022-12-25T04:35:56.740Z,9.25
2022-12-25T04:36:17.794Z,9.25
2022-12-25T04:36:38.865Z,9.25
2022-12-25T04:36:59.915Z,9.26
2022-12-25T04:37:21.027Z,9.25
2022-12-25T04:37:42.071Z,9.25
2022-12-25T04:38:03.140Z,9.25
2022-12-25T04:38:24.197Z,9.26
2022-12-25T04:38:45.252Z,9.26
2022-12-25T04:39:06.318Z,9.26
2022-12-25T04:39:27.424Z,9.25
2022-12-25T04:39:48.445Z,9.26
2022-12-25T04:40:09.503Z,9.26
2022-12-25T04:40:30.554Z,9.26
2022-12-25T04:40:51.616Z,9.26
2022-12-25T04:41:12.741Z,9.26